Time;durP1;ratioP1;P1;durP2;ratioP2;P2;SDS_P1;SDS_P2;PMS_P1;PMS_P2;Temp;Humidity;BMP_temperature;BMP_pressure;BME280_temperature;BME280_humidity;BME280_pressure;Samples;Min_cycle;Max_cycle;Signal;HPM_P1;HPM_P2
2023/06/15 00:02:57;;;;;;;;;;;21.80;60.90;;;;;;6295742;28;19920;-72
2023/06/15 00:05:58;;;;;;;;;;;21.80;60.90;;;;;;6295972;28;20011;-72
2023/06/15 00:08:58;;;;;;;;;;;21.80;60.90;;;;;;6295798;28;19908;-72
2023/06/15 00:11:59;;;;;;;;;;;21.80;60.90;;;;;;6295764;28;20302;-72
2023/06/15 00:15:00;;;;;;;;;;;21.80;61.00;;;;;;6295816;28;19920;-73
2023/06/15 00:18:01;;;;;;;;;;;21.80;61.00;;;;;;6295861;28;19920;-72
2023/06/15 00:21:02;;;;;;;;;;;21.80;61.00;;;;;;6295457;28;19954;-72
2023/06/15 00:24:03;;;;;;;;;;;21.80;61.00;;;;;;6295277;28;19912;-72
2023/06/15 00:27:04;;;;;;;;;;;21.80;61.00;;;;;;6295323;28;19995;-72
2023/06/15 00:30:04;;;;;;;;;;;21.80;61.00;;;;;;6294941;28;20004;-72
2023/06/15 00:33:05;;;;;;;;;;;21.80;61.00;;;;;;6295553;28;19987;-72
2023/06/15 00:36:08;;;;;;;;;;;21.80;61.00;;;;;;6295169;28;19943;-72
2023/06/15 00:39:09;;;;;;;;;;;21.80;61.00;;;;;;6295305;28;20003;-72
2023/06/15 00:42:10;;;;;;;;;;;21.80;61.00;;;;;;6294998;28;19909;-72
2023/06/15 00:45:10;;;;;;;;;;;21.80;61.00;;;;;;6294204;28;19913;-72
2023/06/15 00:48:12;;;;;;;;;;;21.80;61.00;;;;;;6295139;28;20450;-72
2023/06/15 00:51:12;;;;;;;;;;;21.80;61.00;;;;;;6294863;28;19955;-72
2023/06/15 00:54:16;;;;;;;;;;;21.80;61.00;;;;;;6294574;28;19930;-72
2023/06/15 00:57:17;;;;;;;;;;;21.80;61.00;;;;;;6294589;28;20004;-72
2023/06/15 01:00:18;;;;;;;;;;;21.80;61.00;;;;;;6294600;28;19915;-72
2023/06/15 01:03:20;;;;;;;;;;;21.80;61.00;;;;;;6294547;28;19916;-73
2023/06/15 01:06:24;;;;;;;;;;;21.80;61.00;;;;;;6294563;28;19915;-73
2023/06/15 01:09:25;;;;;;;;;;;21.80;61.00;;;;;;6294609;28;19908;-72
2023/06/15 01:12:28;;;;;;;;;;;21.80;61.00;;;;;;6294333;28;19912;-73
2023/06/15 01:15:29;;;;;;;;;;;21.80;61.00;;;;;;6294619;28;19920;-72
2023/06/15 01:18:30;;;;;;;;;;;21.80;61.00;;;;;;6294352;28;19917;-72
2023/06/15 01:21:31;;;;;;;;;;;21.80;61.00;;;;;;6294441;28;20387;-73
2023/06/15 01:24:35;;;;;;;;;;;21.80;61.00;;;;;;6294156;28;19962;-72
2023/06/15 01:27:37;;;;;;;;;;;21.80;61.10;;;;;;6294510;28;19909;-72
2023/06/15 01:30:40;;;;;;;;;;;21.80;61.00;;;;;;6294619;28;19951;-73
2023/06/15 01:33:47;;;;;;;;;;;21.80;61.00;;;;;;6294297;28;19959;-72
2023/06/15 01:36:48;;;;;;;;;;;21.80;61.00;;;;;;6294164;28;20489;-72
2023/06/15 01:39:48;;;;;;;;;;;21.80;61.00;;;;;;6294637;28;19913;-72
2023/06/15 01:42:50;;;;;;;;;;;21.80;61.00;;;;;;6294172;28;20546;-72
2023/06/15 01:45:51;;;;;;;;;;;21.80;61.00;;;;;;6294625;28;19934;-72
2023/06/15 01:48:53;;;;;;;;;;;21.80;61.00;;;;;;6292972;28;19908;-72
2023/06/15 01:51:53;;;;;;;;;;;21.80;61.00;;;;;;6294256;28;20454;-72
2023/06/15 01:54:54;;;;;;;;;;;21.80;61.00;;;;;;6294184;28;19917;-72
2023/06/15 01:57:55;;;;;;;;;;;21.80;61.00;;;;;;6293959;28;20327;-72
2023/06/15 02:00:55;;;;;;;;;;;21.80;61.00;;;;;;6294118;28;19919;-72
2023/06/15 02:03:56;;;;;;;;;;;21.80;61.00;;;;;;6293735;28;19955;-73
2023/06/15 02:06:57;;;;;;;;;;;21.80;61.00;;;;;;6293843;28;20011;-72
2023/06/15 02:09:57;;;;;;;;;;;21.80;61.10;;;;;;6293983;28;20378;-72
2023/06/15 02:12:58;;;;;;;;;;;21.80;61.10;;;;;;6293849;28;19915;-72
2023/06/15 02:15:59;;;;;;;;;;;21.80;61.10;;;;;;6293855;28;19913;-72
2023/06/15 02:19:03;;;;;;;;;;;21.80;61.10;;;;;;6293896;28;19995;-72
2023/06/15 02:22:03;;;;;;;;;;;21.80;61.10;;;;;;6295975;28;20029;-72
2023/06/15 02:25:04;;;;;;;;;;;21.80;61.10;;;;;;6298487;28;19908;-72
2023/06/15 02:28:05;;;;;;;;;;;21.80;61.10;;;;;;6297700;28;19955;-72
2023/06/15 02:31:06;;;;;;;;;;;21.80;61.20;;;;;;6299929;28;19912;-72
2023/06/15 02:34:06;;;;;;;;;;;21.80;61.10;;;;;;6297743;28;19908;-72
2023/06/15 02:37:08;;;;;;;;;;;21.80;61.20;;;;;;6297992;28;19912;-73
2023/06/15 02:40:09;;;;;;;;;;;21.80;61.20;;;;;;6298156;28;20359;-72
2023/06/15 02:43:09;;;;;;;;;;;21.80;61.10;;;;;;6297817;28;19909;-72
2023/06/15 02:46:10;;;;;;;;;;;21.80;61.10;;;;;;6297959;28;19909;-73
2023/06/15 02:49:10;;;;;;;;;;;21.80;61.20;;;;;;6297817;28;19909;-72
2023/06/15 02:52:11;;;;;;;;;;;21.80;61.10;;;;;;6298006;28;19908;-72
2023/06/15 02:55:13;;;;;;;;;;;21.80;61.20;;;;;;6297418;28;20349;-72
2023/06/15 02:58:13;;;;;;;;;;;21.80;61.20;;;;;;6297528;28;20015;-72
2023/06/15 03:01:17;;;;;;;;;;;21.80;61.20;;;;;;6297369;28;20496;-73
2023/06/15 03:04:21;;;;;;;;;;;21.80;61.20;;;;;;6297168;28;19928;-72
2023/06/15 03:07:23;;;;;;;;;;;21.80;61.20;;;;;;6296365;28;19913;-72
2023/06/15 03:10:23;;;;;;;;;;;21.80;61.20;;;;;;6296804;28;19944;-72
2023/06/15 03:13:24;;;;;;;;;;;21.80;61.20;;;;;;6296347;28;19909;-73
2023/06/15 03:16:25;;;;;;;;;;;21.80;61.20;;;;;;6296209;28;19913;-72
2023/06/15 03:19:25;;;;;;;;;;;21.70;61.00;;;;;;6296230;28;19913;-72
2023/06/15 03:22:26;;;;;;;;;;;21.70;61.10;;;;;;6296298;28;19916;-72
2023/06/15 03:25:29;;;;;;;;;;;21.80;61.20;;;;;;6295884;28;19909;-72
2023/06/15 03:28:29;;;;;;;;;;;21.70;61.00;;;;;;6296790;28;20286;-72
2023/06/15 03:31:33;;;;;;;;;;;21.80;61.20;;;;;;6297179;28;19909;-72
2023/06/15 03:34:37;;;;;;;;;;;21.80;61.20;;;;;;6296116;28;19908;-72
2023/06/15 03:37:37;;;;;;;;;;;21.70;61.00;;;;;;6296547;28;19923;-72
2023/06/15 03:40:38;;;;;;;;;;;21.80;61.20;;;;;;6296744;28;19966;-72
2023/06/15 03:43:38;;;;;;;;;;;21.70;61.00;;;;;;6296219;28;19908;-72
2023/06/15 03:46:41;;;;;;;;;;;21.70;61.10;;;;;;6295125;28;20442;-73
2023/06/15 03:49:41;;;;;;;;;;;21.80;61.20;;;;;;6296430;28;19992;-72
2023/06/15 03:52:42;;;;;;;;;;;21.70;61.00;;;;;;6296600;28;20321;-72
2023/06/15 03:55:42;;;;;;;;;;;21.80;61.20;;;;;;6295815;28;20355;-72
2023/06/15 03:58:43;;;;;;;;;;;21.80;61.20;;;;;;6296096;28;19966;-72
2023/06/15 04:01:44;;;;;;;;;;;21.70;61.00;;;;;;6296320;28;19952;-74
2023/06/15 04:04:45;;;;;;;;;;;21.70;61.10;;;;;;6296070;28;20557;-73
2023/06/15 04:07:46;;;;;;;;;;;21.70;61.00;;;;;;6296111;28;19912;-72
2023/06/15 04:10:46;;;;;;;;;;;21.70;61.10;;;;;;6295776;28;19920;-72
2023/06/15 04:13:47;;;;;;;;;;;21.80;61.20;;;;;;6295774;28;19908;-72
2023/06/15 04:16:47;;;;;;;;;;;21.70;61.40;;;;;;6295904;28;20318;-72
2023/06/15 04:19:47;;;;;;;;;;;21.70;61.10;;;;;;6295463;28;20553;-72
2023/06/15 04:22:48;;;;;;;;;;;21.80;61.20;;;;;;6295777;28;20039;-72
2023/06/15 04:25:48;;;;;;;;;;;21.70;61.20;;;;;;6294042;28;20015;-72
2023/06/15 04:28:49;;;;;;;;;;;21.80;61.20;;;;;;6284949;28;19920;-72
2023/06/15 04:31:54;;;;;;;;;;;21.80;61.20;;;;;;6291039;28;19909;-72
2023/06/15 04:34:56;;;;;;;;;;;21.80;61.20;;;;;;6290133;28;19912;-72
2023/06/15 04:37:59;;;;;;;;;;;21.70;61.10;;;;;;6284826;28;20007;-72
2023/06/15 04:41:00;;;;;;;;;;;21.80;61.20;;;;;;6278315;28;20370;-72
2023/06/15 04:44:00;;;;;;;;;;;21.70;61.10;;;;;;6317672;28;19908;-72
2023/06/15 04:47:02;;;;;;;;;;;21.70;61.20;;;;;;6285377;28;19912;-72
2023/06/15 04:50:04;;;;;;;;;;;21.70;61.10;;;;;;6284180;28;20329;-72
2023/06/15 04:53:04;;;;;;;;;;;21.70;61.10;;;;;;6295915;28;19908;-72
2023/06/15 04:56:05;;;;;;;;;;;21.70;61.10;;;;;;6292438;28;19920;-72
2023/06/15 04:59:05;;;;;;;;;;;21.80;61.20;;;;;;6272188;28;19917;-73
2023/06/15 05:02:07;;;;;;;;;;;21.80;61.20;;;;;;6269431;28;19928;-72
2023/06/15 05:05:08;;;;;;;;;;;21.70;61.10;;;;;;6276252;28;20394;-72
2023/06/15 05:08:08;;;;;;;;;;;21.70;61.10;;;;;;6269408;28;19916;-72
2023/06/15 05:11:09;;;;;;;;;;;21.70;61.10;;;;;;6228561;28;20003;-74
2023/06/15 05:14:09;;;;;;;;;;;21.80;61.40;;;;;;6241533;28;19955;-72
2023/06/15 05:17:10;;;;;;;;;;;21.90;62.30;;;;;;6218876;28;19917;-72
2023/06/15 05:20:11;;;;;;;;;;;22.00;62.00;;;;;;6226244;28;20499;-72
2023/06/15 05:23:11;;;;;;;;;;;22.00;61.70;;;;;;6218495;28;19967;-73
2023/06/15 05:26:12;;;;;;;;;;;22.00;61.40;;;;;;6228410;28;20332;-72
2023/06/15 05:29:12;;;;;;;;;;;22.00;61.20;;;;;;6215341;28;20016;-72
2023/06/15 05:32:13;;;;;;;;;;;22.00;61.20;;;;;;6235823;28;19910;-72
2023/06/15 05:35:13;;;;;;;;;;;22.00;61.30;;;;;;6233358;28;19921;-72
2023/06/15 05:38:14;;;;;;;;;;;22.00;61.00;;;;;;6233837;28;20447;-72
2023/06/15 05:41:14;;;;;;;;;;;22.00;60.90;;;;;;6244869;28;19927;-72
2023/06/15 05:44:15;;;;;;;;;;;22.10;60.90;;;;;;6268923;28;20422;-72
2023/06/15 05:47:15;;;;;;;;;;;22.10;60.80;;;;;;6286826;28;19920;-72
2023/06/15 05:50:16;;;;;;;;;;;22.10;60.60;;;;;;6293522;28;19912;-73
2023/06/15 05:53:16;;;;;;;;;;;22.10;60.60;;;;;;6273959;28;19998;-73
2023/06/15 05:56:17;;;;;;;;;;;22.20;60.50;;;;;;6277147;28;19959;-72
2023/06/15 05:59:17;;;;;;;;;;;22.20;60.50;;;;;;6275365;28;19917;-72
2023/06/15 06:02:18;;;;;;;;;;;22.20;60.40;;;;;;6280193;28;19916;-72
2023/06/15 06:05:18;;;;;;;;;;;22.20;60.40;;;;;;6308973;28;19920;-72
2023/06/15 06:08:21;;;;;;;;;;;22.20;60.30;;;;;;6275671;28;19961;-72
2023/06/15 06:11:21;;;;;;;;;;;22.30;60.30;;;;;;6299390;28;20003;-71
2023/06/15 06:14:22;;;;;;;;;;;22.30;60.20;;;;;;6294136;28;20320;-71
2023/06/15 06:17:22;;;;;;;;;;;22.30;60.10;;;;;;6296635;28;20366;-72
2023/06/15 06:20:23;;;;;;;;;;;22.30;60.10;;;;;;6286188;28;19913;-72
2023/06/15 06:23:23;;;;;;;;;;;22.40;60.10;;;;;;6297567;28;19909;-72
2023/06/15 06:26:24;;;;;;;;;;;22.40;60.00;;;;;;6299132;28;20012;-73
2023/06/15 06:29:24;;;;;;;;;;;22.50;60.20;;;;;;6278106;28;20642;-72
2023/06/15 06:32:25;;;;;;;;;;;22.50;59.90;;;;;;6287816;28;20586;-72
2023/06/15 06:35:25;;;;;;;;;;;22.50;60.00;;;;;;6298826;28;19923;-72
2023/06/15 06:38:26;;;;;;;;;;;22.40;59.90;;;;;;6298818;28;19963;-72
2023/06/15 06:41:26;;;;;;;;;;;22.40;60.00;;;;;;6299241;28;19966;-73
2023/06/15 06:44:27;;;;;;;;;;;22.40;60.00;;;;;;6297965;28;19908;-72
2023/06/15 06:47:27;;;;;;;;;;;22.40;60.10;;;;;;6298766;28;19997;-73
2023/06/15 06:50:28;;;;;;;;;;;22.40;60.00;;;;;;6299528;28;19916;-72
2023/06/15 06:53:28;;;;;;;;;;;22.30;59.60;;;;;;6288922;28;19952;-73
2023/06/15 06:56:29;;;;;;;;;;;22.30;57.40;;;;;;6276362;28;19917;-72
2023/06/15 06:59:30;;;;;;;;;;;22.30;59.00;;;;;;6283989;28;20748;-72
2023/06/15 07:02:32;;;;;;;;;;;22.40;58.80;;;;;;6296664;28;20260;-72
2023/06/15 07:05:32;;;;;;;;;;;22.40;60.20;;;;;;6276743;28;19913;-73
2023/06/15 07:08:35;;;;;;;;;;;22.50;60.00;;;;;;6291526;28;20409;-72
2023/06/15 07:11:35;;;;;;;;;;;22.60;59.70;;;;;;6298656;28;20399;-74
2023/06/15 07:14:36;;;;;;;;;;;22.70;59.00;;;;;;6298598;28;19912;-72
2023/06/15 07:17:36;;;;;;;;;;;22.80;59.70;;;;;;6297071;28;19956;-72
2023/06/15 07:20:37;;;;;;;;;;;22.80;59.50;;;;;;6275236;28;19916;-71
2023/06/15 07:23:37;;;;;;;;;;;22.80;59.30;;;;;;6300020;28;19997;-71
2023/06/15 07:26:38;;;;;;;;;;;22.80;59.50;;;;;;6298481;28;19909;-72
2023/06/15 07:29:38;;;;;;;;;;;22.80;59.40;;;;;;6297454;28;19909;-72
2023/06/15 07:32:38;;;;;;;;;;;22.80;59.50;;;;;;6295767;28;19955;-72
2023/06/15 07:35:39;;;;;;;;;;;22.80;59.50;;;;;;6292568;28;20332;-70
2023/06/15 07:38:41;;;;;;;;;;;22.90;59.80;;;;;;6289515;28;19913;-72
2023/06/15 07:41:41;;;;;;;;;;;22.90;59.40;;;;;;6290309;28;20002;-73
2023/06/15 07:44:42;;;;;;;;;;;22.80;59.20;;;;;;6289639;28;19912;-72
2023/06/15 07:47:42;;;;;;;;;;;22.80;59.10;;;;;;6292593;28;19909;-72
2023/06/15 07:50:43;;;;;;;;;;;22.80;59.40;;;;;;6272909;28;19986;-71
2023/06/15 07:53:43;;;;;;;;;;;22.80;59.20;;;;;;6282090;28;19944;-72
2023/06/15 07:56:45;;;;;;;;;;;22.90;59.20;;;;;;6272806;28;19917;-72
2023/06/15 07:59:45;;;;;;;;;;;22.90;59.20;;;;;;6293388;28;20678;-72
2023/06/15 08:02:46;;;;;;;;;;;23.00;59.20;;;;;;6297378;28;19924;-70
2023/06/15 08:05:46;;;;;;;;;;;23.10;59.10;;;;;;6273067;28;19920;-73
2023/06/15 08:08:47;;;;;;;;;;;23.10;59.10;;;;;;6283750;28;19916;-73
2023/06/15 08:11:49;;;;;;;;;;;23.00;59.20;;;;;;6321079;28;20030;-72
2023/06/15 08:14:49;;;;;;;;;;;23.10;59.10;;;;;;6302018;28;19915;-71
2023/06/15 08:17:50;;;;;;;;;;;23.10;59.20;;;;;;6297066;28;20264;-73
2023/06/15 08:20:50;;;;;;;;;;;23.10;59.30;;;;;;6278789;28;19965;-73
2023/06/15 08:23:51;;;;;;;;;;;23.10;59.50;;;;;;6280390;28;20003;-72
2023/06/15 08:26:52;;;;;;;;;;;23.10;59.50;;;;;;6296607;28;19908;-72
2023/06/15 08:29:52;;;;;;;;;;;23.10;59.50;;;;;;6295700;28;19912;-72
2023/06/15 08:32:52;;;;;;;;;;;23.10;59.40;;;;;;6287154;28;20351;-72
2023/06/15 08:35:53;;;;;;;;;;;23.00;59.50;;;;;;6271692;28;19932;-71
2023/06/15 08:38:53;;;;;;;;;;;23.10;59.60;;;;;;6294866;28;19958;-71
2023/06/15 08:41:55;;;;;;;;;;;23.10;59.50;;;;;;6272472;28;19908;-72
2023/06/15 08:44:57;;;;;;;;;;;23.20;59.60;;;;;;6280309;28;19909;-73
2023/06/15 08:47:58;;;;;;;;;;;23.20;59.40;;;;;;6271757;28;19916;-74
2023/06/15 08:50:59;;;;;;;;;;;23.20;59.50;;;;;;6295347;28;19991;-71
2023/06/15 08:54:01;;;;;;;;;;;23.20;59.40;;;;;;6296578;28;20271;-73
2023/06/15 08:57:02;;;;;;;;;;;23.30;59.50;;;;;;6276299;28;20395;-72
2023/06/15 09:00:09;;;;;;;;;;;23.30;59.50;;;;;;6295129;28;19996;-73
2023/06/15 09:03:10;;;;;;;;;;;23.30;59.40;;;;;;6271546;28;20543;-72
2023/06/15 09:06:11;;;;;;;;;;;23.30;59.40;;;;;;6289357;28;19923;-71
2023/06/15 09:09:12;;;;;;;;;;;23.20;59.50;;;;;;6289622;28;19908;-72
2023/06/15 09:12:18;;;;;;;;;;;23.30;59.60;;;;;;6292902;28;19931;-73
2023/06/15 09:15:25;;;;;;;;;;;23.30;59.40;;;;;;6288624;28;19995;-73
2023/06/15 09:18:26;;;;;;;;;;;23.20;59.40;;;;;;6271317;28;19962;-73
2023/06/15 09:21:28;;;;;;;;;;;23.30;59.40;;;;;;6279977;28;19913;-73
2023/06/15 09:24:29;;;;;;;;;;;23.30;59.10;;;;;;6278501;28;19909;-73
2023/06/15 09:27:29;;;;;;;;;;;23.30;59.50;;;;;;6273208;28;19908;-72
2023/06/15 09:30:34;;;;;;;;;;;23.30;59.40;;;;;;6284741;28;19909;-72
2023/06/15 09:33:35;;;;;;;;;;;23.30;59.40;;;;;;6295874;28;19998;-72
2023/06/15 09:36:35;;;;;;;;;;;23.30;59.60;;;;;;6295334;28;19959;-73
2023/06/15 09:39:44;;;;;;;;;;;23.30;59.40;;;;;;6295786;28;19920;-72
2023/06/15 09:42:49;;;;;;;;;;;23.30;59.50;;;;;;6273200;28;19909;-72
2023/06/15 09:45:50;;;;;;;;;;;23.20;59.50;;;;;;6285613;28;19909;-72
2023/06/15 09:48:50;;;;;;;;;;;23.20;59.50;;;;;;6295824;28;20452;-72
2023/06/15 09:51:51;;;;;;;;;;;23.20;59.60;;;;;;6295154;28;19908;-72
2023/06/15 09:54:54;;;;;;;;;;;23.10;59.50;;;;;;6295451;28;19923;-72
2023/06/15 09:57:56;;;;;;;;;;;23.10;59.60;;;;;;6273622;28;19916;-72
2023/06/15 10:01:02;;;;;;;;;;;23.10;59.70;;;;;;6279703;28;19913;-73
2023/06/15 10:04:03;;;;;;;;;;;23.00;59.60;;;;;;6279312;28;19921;-72
2023/06/15 10:07:04;;;;;;;;;;;23.00;59.70;;;;;;6295107;28;19912;-73
2023/06/15 10:10:05;;;;;;;;;;;23.00;59.70;;;;;;6295368;28;19909;-72
2023/06/15 10:13:10;;;;;;;;;;;23.00;59.70;;;;;;6294940;28;19970;-72
2023/06/15 10:16:15;;;;;;;;;;;23.00;59.70;;;;;;6295085;28;19966;-73
2023/06/15 10:19:16;;;;;;;;;;;23.00;59.70;;;;;;6294992;28;20270;-73
2023/06/15 10:22:18;;;;;;;;;;;23.00;59.60;;;;;;6295113;28;19909;-71
2023/06/15 10:25:19;;;;;;;;;;;23.10;59.50;;;;;;6295141;28;19915;-71
2023/06/15 10:28:23;;;;;;;;;;;23.00;59.60;;;;;;6274779;28;19909;-73
2023/06/15 10:31:30;;;;;;;;;;;23.10;60.00;;;;;;6283388;28;20342;-73
2023/06/15 10:34:36;;;;;;;;;;;23.20;59.80;;;;;;6277967;28;20412;-73
2023/06/15 10:37:55;;;;;;;;;;;23.20;60.50;;;;;;6295013;28;19946;-73
2023/06/15 10:40:56;;;;;;;;;;;23.30;60.90;;;;;;6289622;28;19908;-72
2023/06/15 10:44:00;;;;;;;;;;;23.20;60.50;;;;;;6272565;28;19913;-72
2023/06/15 10:47:05;;;;;;;;;;;23.20;60.20;;;;;;6283871;28;19991;-72
2023/06/15 10:50:14;;;;;;;;;;;23.10;60.20;;;;;;6275001;28;19909;-71
2023/06/15 10:53:22;;;;;;;;;;;23.10;60.40;;;;;;6282313;28;20362;-71
2023/06/15 10:56:27;;;;;;;;;;;23.00;60.20;;;;;;6283859;28;19923;-71
2023/06/15 10:59:36;;;;;;;;;;;23.00;60.40;;;;;;6297802;28;20264;-71
2023/06/15 11:02:37;;;;;;;;;;;22.90;60.40;;;;;;6298671;28;20400;-71
2023/06/15 11:05:44;;;;;;;;;;;22.90;60.50;;;;;;6278643;28;19917;-71
2023/06/15 11:08:52;;;;;;;;;;;22.80;60.50;;;;;;6280090;28;19916;-71
2023/06/15 11:11:52;;;;;;;;;;;22.80;60.60;;;;;;6283313;28;19991;-71
2023/06/15 11:14:55;;;;;;;;;;;22.80;60.50;;;;;;6273799;28;20387;-71
2023/06/15 11:17:57;;;;;;;;;;;22.70;60.50;;;;;;6293228;28;19908;-71
2023/06/15 11:20:59;;;;;;;;;;;22.70;60.60;;;;;;6298660;28;19909;-72
2023/06/15 11:23:59;;;;;;;;;;;22.70;60.50;;;;;;6297214;28;19916;-70
2023/06/15 11:27:01;;;;;;;;;;;22.70;60.60;;;;;;6297378;28;19948;-72
2023/06/15 11:30:01;;;;;;;;;;;22.70;60.50;;;;;;6297918;28;20037;-72
2023/06/15 11:33:02;;;;;;;;;;;22.70;60.60;;;;;;6282942;28;19912;-71
2023/06/15 11:36:09;;;;;;;;;;;22.60;60.60;;;;;;6295529;28;19916;-71
2023/06/15 11:39:29;;;;;;;;;;;22.60;60.70;;;;;;6292761;28;19934;-71
2023/06/15 11:42:31;;;;;;;;;;;22.60;60.70;;;;;;6285811;28;20653;-71
2023/06/15 11:45:34;;;;;;;;;;;22.60;56.80;;;;;;6298094;28;19908;-71
2023/06/15 11:48:35;;;;;;;;;;;22.60;58.50;;;;;;6296841;28;19915;-72
2023/06/15 11:51:36;;;;;;;;;;;22.60;58.30;;;;;;6300913;28;19924;-72
2023/06/15 11:54:37;;;;;;;;;;;22.60;58.60;;;;;;6297143;28;20001;-71
2023/06/15 11:57:38;;;;;;;;;;;22.50;59.50;;;;;;6293462;28;19917;-71
2023/06/15 12:00:39;;;;;;;;;;;22.50;59.10;;;;;;6279477;28;20351;-71
2023/06/15 12:03:44;;;;;;;;;;;22.50;59.50;;;;;;6296355;28;19920;-71
2023/06/15 12:06:48;;;;;;;;;;;22.50;59.60;;;;;;6296746;28;19909;-72
2023/06/15 12:09:48;;;;;;;;;;;22.50;59.60;;;;;;6279487;28;19924;-71
2023/06/15 12:12:50;;;;;;;;;;;22.40;59.50;;;;;;6306293;28;19916;-71
2023/06/15 12:15:51;;;;;;;;;;;22.40;59.80;;;;;;6271779;28;19955;-71
2023/06/15 12:18:54;;;;;;;;;;;22.40;59.90;;;;;;6278925;28;20641;-72
2023/06/15 12:21:57;;;;;;;;;;;22.40;59.90;;;;;;6274970;28;19970;-71
2023/06/15 12:24:59;;;;;;;;;;;22.40;59.70;;;;;;6296135;28;19961;-71
2023/06/15 12:27:59;;;;;;;;;;;22.40;59.80;;;;;;6296681;28;20312;-72
2023/06/15 12:31:05;;;;;;;;;;;22.40;59.70;;;;;;6272341;28;19913;-71
2023/06/15 12:34:07;;;;;;;;;;;22.40;59.70;;;;;;6291254;28;19962;-71
2023/06/15 12:37:10;;;;;;;;;;;22.40;59.50;;;;;;6296412;28;20378;-72
2023/06/15 12:40:11;;;;;;;;;;;22.40;59.60;;;;;;6294649;28;19964;-71
2023/06/15 12:43:12;;;;;;;;;;;22.40;59.40;;;;;;6296834;28;19982;-72
2023/06/15 12:46:12;;;;;;;;;;;22.40;59.50;;;;;;6296341;28;19957;-71
2023/06/15 12:49:13;;;;;;;;;;;22.40;59.60;;;;;;6296216;28;19954;-71
2023/06/15 12:52:14;;;;;;;;;;;22.30;59.60;;;;;;6296406;28;19915;-72
2023/06/15 12:55:15;;;;;;;;;;;22.40;59.80;;;;;;6304284;28;19939;-71
2023/06/15 12:58:16;;;;;;;;;;;22.40;59.90;;;;;;6295890;28;20390;-71
2023/06/15 13:01:17;;;;;;;;;;;22.30;60.00;;;;;;6295703;28;19909;-71
2023/06/15 13:04:17;;;;;;;;;;;22.30;59.80;;;;;;6294291;28;19920;-71
2023/06/15 13:07:18;;;;;;;;;;;22.30;59.70;;;;;;6295046;28;19908;-71
2023/06/15 13:10:18;;;;;;;;;;;22.30;59.50;;;;;;6295627;28;19908;-71
2023/06/15 13:13:19;;;;;;;;;;;22.30;59.70;;;;;;6296407;28;19908;-71
2023/06/15 13:16:20;;;;;;;;;;;22.30;59.60;;;;;;6274923;28;19917;-71
2023/06/15 13:19:20;;;;;;;;;;;22.20;59.80;;;;;;6285855;28;19909;-71
2023/06/15 13:22:21;;;;;;;;;;;22.20;59.80;;;;;;6296042;28;20375;-71
2023/06/15 13:25:21;;;;;;;;;;;22.30;59.60;;;;;;6295597;28;19909;-71
2023/06/15 13:28:22;;;;;;;;;;;22.20;59.20;;;;;;6294249;28;19950;-70
2023/06/15 13:31:22;;;;;;;;;;;22.20;59.20;;;;;;6277973;28;19920;-71
2023/06/15 13:34:24;;;;;;;;;;;22.30;59.40;;;;;;6282097;28;19916;-71
2023/06/15 13:37:24;;;;;;;;;;;22.20;59.50;;;;;;6279911;28;20017;-71
2023/06/15 13:40:25;;;;;;;;;;;22.20;59.50;;;;;;6286366;28;19913;-71
2023/06/15 13:43:26;;;;;;;;;;;22.30;59.70;;;;;;6275044;28;20052;-71
2023/06/15 13:46:27;;;;;;;;;;;22.20;59.70;;;;;;6295328;28;20366;-71
2023/06/15 13:49:28;;;;;;;;;;;22.20;59.70;;;;;;6295497;28;19917;-71
2023/06/15 13:52:28;;;;;;;;;;;22.20;59.80;;;;;;6295023;28;19952;-71
2023/06/15 13:55:29;;;;;;;;;;;22.20;59.90;;;;;;6297458;28;20322;-71
2023/06/15 13:58:30;;;;;;;;;;;22.20;59.90;;;;;;6295291;28;19912;-71
2023/06/15 14:01:31;;;;;;;;;;;22.20;60.00;;;;;;6293633;28;20402;-71
2023/06/15 14:04:32;;;;;;;;;;;22.20;60.10;;;;;;6295159;28;19927;-71
2023/06/15 14:07:36;;;;;;;;;;;22.20;60.10;;;;;;6295402;28;20381;-71
2023/06/15 14:10:36;;;;;;;;;;;22.10;60.20;;;;;;6294797;28;20382;-71
2023/06/15 14:13:37;;;;;;;;;;;22.10;60.20;;;;;;6295459;28;19934;-73
2023/06/15 14:16:37;;;;;;;;;;;22.10;60.70;;;;;;6281643;28;20443;-71
2023/06/15 14:19:38;;;;;;;;;;;22.20;60.50;;;;;;6285769;28;19908;-71
2023/06/15 14:22:38;;;;;;;;;;;22.10;60.40;;;;;;6278847;28;19956;-72
2023/06/15 14:25:40;;;;;;;;;;;22.20;60.60;;;;;;6298827;28;19908;-71
2023/06/15 14:28:40;;;;;;;;;;;22.10;60.50;;;;;;6278301;28;19951;-71
2023/06/15 14:31:49;;;;;;;;;;;22.10;60.60;;;;;;6298891;28;19909;-71
2023/06/15 14:34:49;;;;;;;;;;;22.10;60.60;;;;;;6299157;28;19919;-71
2023/06/15 14:37:51;;;;;;;;;;;22.10;60.60;;;;;;6298472;28;20371;-71
2023/06/15 14:40:51;;;;;;;;;;;22.10;60.60;;;;;;6285432;28;20478;-71
2023/06/15 14:43:52;;;;;;;;;;;22.10;60.70;;;;;;6274573;28;19909;-71
2023/06/15 14:46:52;;;;;;;;;;;22.10;60.70;;;;;;6287853;28;19909;-71
2023/06/15 14:49:53;;;;;;;;;;;22.10;60.70;;;;;;6280227;28;19909;-71
2023/06/15 14:52:54;;;;;;;;;;;22.10;60.70;;;;;;6280657;28;20050;-72
2023/06/15 14:55:54;;;;;;;;;;;22.10;60.70;;;;;;6288522;28;20041;-71
2023/06/15 14:58:56;;;;;;;;;;;22.10;60.70;;;;;;6326043;27;20324;-70
2023/06/15 15:01:56;;;;;;;;;;;22.10;60.70;;;;;;6300731;28;19947;-71
2023/06/15 15:04:57;;;;;;;;;;;22.10;60.70;;;;;;6298692;28;19928;-71
2023/06/15 15:07:57;;;;;;;;;;;22.10;60.70;;;;;;6298768;28;19908;-71
2023/06/15 15:10:58;;;;;;;;;;;22.10;60.80;;;;;;6299074;28;19916;-71
2023/06/15 15:14:00;;;;;;;;;;;22.10;60.80;;;;;;6274986;28;19915;-70
2023/06/15 15:17:00;;;;;;;;;;;22.10;60.80;;;;;;6294303;28;19920;-71
2023/06/15 15:20:02;;;;;;;;;;;22.10;60.80;;;;;;6298379;28;19912;-71
2023/06/15 15:23:02;;;;;;;;;;;22.10;60.80;;;;;;6284007;28;20014;-71
2023/06/15 15:26:03;;;;;;;;;;;22.10;60.80;;;;;;6284479;28;19908;-71
2023/06/15 15:29:03;;;;;;;;;;;22.10;60.80;;;;;;6274977;28;20002;-71
2023/06/15 15:32:04;;;;;;;;;;;22.10;60.70;;;;;;6292324;28;19909;-71
2023/06/15 15:35:05;;;;;;;;;;;22.10;60.70;;;;;;6298271;28;19908;-71
2023/06/15 15:38:05;;;;;;;;;;;22.10;60.70;;;;;;6284937;28;19948;-71
2023/06/15 15:41:06;;;;;;;;;;;22.10;60.80;;;;;;6287581;28;19912;-71
2023/06/15 15:44:07;;;;;;;;;;;22.10;60.80;;;;;;6277390;28;19920;-71
2023/06/15 15:47:07;;;;;;;;;;;22.10;60.80;;;;;;6287815;28;19916;-71
2023/06/15 15:50:08;;;;;;;;;;;22.00;60.70;;;;;;6273801;28;20402;-71
2023/06/15 15:53:08;;;;;;;;;;;22.10;60.80;;;;;;6286980;28;19909;-71
2023/06/15 15:56:09;;;;;;;;;;;22.00;60.70;;;;;;6286054;28;19927;-71
2023/06/15 15:59:09;;;;;;;;;;;22.10;60.80;;;;;;6277704;28;19912;-71
2023/06/15 16:02:10;;;;;;;;;;;22.10;60.80;;;;;;6287112;28;19908;-72
2023/06/15 16:05:11;;;;;;;;;;;22.10;60.80;;;;;;6272835;28;19930;-71
2023/06/15 16:08:12;;;;;;;;;;;22.10;60.80;;;;;;6277902;28;20371;-71
2023/06/15 16:11:12;;;;;;;;;;;22.00;60.70;;;;;;6279663;28;19940;-71
2023/06/15 16:14:13;;;;;;;;;;;22.00;60.70;;;;;;6278957;28;19908;-71
2023/06/15 16:17:13;;;;;;;;;;;22.00;60.70;;;;;;6285064;28;20389;-71
2023/06/15 16:20:14;;;;;;;;;;;22.00;60.70;;;;;;6294328;28;19954;-71
2023/06/15 16:23:14;;;;;;;;;;;22.00;60.70;;;;;;6287249;28;19916;-71
2023/06/15 16:26:15;;;;;;;;;;;22.00;60.70;;;;;;6275123;28;20363;-71
2023/06/15 16:29:15;;;;;;;;;;;22.00;60.70;;;;;;6294713;28;19944;-71
2023/06/15 16:32:16;;;;;;;;;;;22.00;60.70;;;;;;6294337;28;19983;-71
2023/06/15 16:35:17;;;;;;;;;;;22.00;60.70;;;;;;6294598;28;19958;-71
2023/06/15 16:38:17;;;;;;;;;;;22.00;60.70;;;;;;6292562;28;19909;-71
2023/06/15 16:41:18;;;;;;;;;;;22.00;60.70;;;;;;6294439;28;19908;-71
2023/06/15 16:44:18;;;;;;;;;;;22.00;60.70;;;;;;6284484;28;19909;-71
2023/06/15 16:47:19;;;;;;;;;;;22.00;60.70;;;;;;6291272;28;19909;-71
2023/06/15 16:50:19;;;;;;;;;;;22.00;60.80;;;;;;6294069;28;19909;-71
2023/06/15 16:53:20;;;;;;;;;;;22.00;60.80;;;;;;6293628;28;19912;-72
2023/06/15 16:56:20;;;;;;;;;;;22.00;60.80;;;;;;6271047;28;19960;-71
2023/06/15 16:59:21;;;;;;;;;;;22.00;60.70;;;;;;6293848;28;19909;-71
2023/06/15 17:02:21;;;;;;;;;;;22.00;60.70;;;;;;6283345;28;20571;-71
2023/06/15 17:05:22;;;;;;;;;;;22.00;60.70;;;;;;6278911;28;19959;-71
2023/06/15 17:08:22;;;;;;;;;;;22.00;60.80;;;;;;6291826;28;19955;-71
2023/06/15 17:11:23;;;;;;;;;;;22.00;60.80;;;;;;6291542;28;20007;-71
2023/06/15 17:14:24;;;;;;;;;;;22.00;60.80;;;;;;6301356;28;19913;-71
2023/06/15 17:17:25;;;;;;;;;;;22.00;60.80;;;;;;6287145;28;19943;-71
2023/06/15 17:20:25;;;;;;;;;;;22.00;60.80;;;;;;6288313;28;19909;-71
2023/06/15 17:23:26;;;;;;;;;;;22.00;60.80;;;;;;6291973;28;19957;-72
2023/06/15 17:26:26;;;;;;;;;;;22.00;60.80;;;;;;6288587;28;19999;-71
2023/06/15 17:29:27;;;;;;;;;;;22.00;60.70;;;;;;6291091;28;19908;-71
2023/06/15 17:32:27;;;;;;;;;;;22.00;60.60;;;;;;6291003;28;19909;-71
2023/06/15 17:35:28;;;;;;;;;;;22.00;60.40;;;;;;6278727;28;20284;-72